sensor_id;sensor_type;location;lat;lon;timestamp;P1;durP1;ratioP1;P2;durP2;ratioP2
13032;SDS011;6583;42.632;23.298;2024-02-26T00:01:16;4.87;;;3.60;;
13032;SDS011;6583;42.632;23.298;2024-02-26T00:03:43;3.50;;;3.03;;
13032;SDS011;6583;42.632;23.298;2024-02-26T00:06:10;3.43;;;3.00;;
13032;SDS011;6583;42.632;23.298;2024-02-26T00:08:37;4.17;;;3.10;;
13032;SDS011;6583;42.632;23.298;2024-02-26T00:11:04;5.03;;;3.73;;
13032;SDS011;6583;42.632;23.298;2024-02-26T00:13:30;4.60;;;3.20;;
13032;SDS011;6583;42.632;23.298;2024-02-26T00:15:57;3.63;;;3.10;;
13032;SDS011;6583;42.632;23.298;2024-02-26T00:18:25;5.17;;;3.00;;
13032;SDS011;6583;42.632;23.298;2024-02-26T00:20:52;4.47;;;3.07;;
13032;SDS011;6583;42.632;23.298;2024-02-26T00:23:18;5.17;;;3.27;;
13032;SDS011;6583;42.632;23.298;2024-02-26T00:25:45;4.57;;;3.33;;
13032;SDS011;6583;42.632;23.298;2024-02-26T00:28:13;3.90;;;3.27;;
13032;SDS011;6583;42.632;23.298;2024-02-26T00:30:39;3.93;;;3.20;;
13032;SDS011;6583;42.632;23.298;2024-02-26T00:33:06;4.80;;;4.10;;
13032;SDS011;6583;42.632;23.298;2024-02-26T00:35:34;4.17;;;3.57;;
13032;SDS011;6583;42.632;23.298;2024-02-26T00:38:01;5.40;;;4.13;;
13032;SDS011;6583;42.632;23.298;2024-02-26T00:40:28;4.43;;;3.77;;
13032;SDS011;6583;42.632;23.298;2024-02-26T00:42:55;4.50;;;3.70;;
13032;SDS011;6583;42.632;23.298;2024-02-26T00:45:21;4.43;;;3.50;;
13032;SDS011;6583;42.632;23.298;2024-02-26T00:47:48;3.57;;;3.27;;
13032;SDS011;6583;42.632;23.298;2024-02-26T00:50:15;6.27;;;4.83;;
13032;SDS011;6583;42.632;23.298;2024-02-26T00:52:43;7.57;;;5.87;;
13032;SDS011;6583;42.632;23.298;2024-02-26T00:55:09;8.87;;;6.07;;
13032;SDS011;6583;42.632;23.298;2024-02-26T00:57:36;7.50;;;5.50;;
13032;SDS011;6583;42.632;23.298;2024-02-26T01:00:03;6.43;;;4.63;;
13032;SDS011;6583;42.632;23.298;2024-02-26T01:02:33;7.30;;;5.33;;
13032;SDS011;6583;42.632;23.298;2024-02-26T01:05:00;8.60;;;6.80;;
13032;SDS011;6583;42.632;23.298;2024-02-26T01:07:28;6.93;;;6.20;;
13032;SDS011;6583;42.632;23.298;2024-02-26T01:09:59;5.90;;;4.13;;
13032;SDS011;6583;42.632;23.298;2024-02-26T01:12:26;8.07;;;5.20;;
13032;SDS011;6583;42.632;23.298;2024-02-26T01:14:53;5.87;;;4.97;;
13032;SDS011;6583;42.632;23.298;2024-02-26T01:17:19;7.10;;;5.90;;
13032;SDS011;6583;42.632;23.298;2024-02-26T01:19:46;7.17;;;5.60;;
13032;SDS011;6583;42.632;23.298;2024-02-26T01:22:13;7.40;;;5.87;;
13032;SDS011;6583;42.632;23.298;2024-02-26T01:24:40;7.97;;;5.87;;
13032;SDS011;6583;42.632;23.298;2024-02-26T01:27:08;7.10;;;5.97;;
13032;SDS011;6583;42.632;23.298;2024-02-26T01:29:34;7.97;;;6.07;;
13032;SDS011;6583;42.632;23.298;2024-02-26T01:32:01;7.87;;;5.47;;
13032;SDS011;6583;42.632;23.298;2024-02-26T01:34:30;7.27;;;5.30;;
13032;SDS011;6583;42.632;23.298;2024-02-26T01:36:56;7.53;;;5.13;;
13032;SDS011;6583;42.632;23.298;2024-02-26T01:39:23;7.70;;;4.97;;
13032;SDS011;6583;42.632;23.298;2024-02-26T01:41:50;7.00;;;5.20;;
13032;SDS011;6583;42.632;23.298;2024-02-26T01:44:18;6.67;;;4.93;;
13032;SDS011;6583;42.632;23.298;2024-02-26T01:46:45;6.50;;;5.20;;
13032;SDS011;6583;42.632;23.298;2024-02-26T01:49:13;7.20;;;6.07;;
13032;SDS011;6583;42.632;23.298;2024-02-26T01:51:40;5.83;;;5.23;;
13032;SDS011;6583;42.632;23.298;2024-02-26T01:54:09;6.77;;;5.57;;
13032;SDS011;6583;42.632;23.298;2024-02-26T01:56:36;10.00;;;6.63;;
13032;SDS011;6583;42.632;23.298;2024-02-26T01:59:05;8.27;;;6.40;;
13032;SDS011;6583;42.632;23.298;2024-02-26T02:01:36;8.00;;;6.43;;
13032;SDS011;6583;42.632;23.298;2024-02-26T02:04:05;9.27;;;7.07;;
13032;SDS011;6583;42.632;23.298;2024-02-26T02:06:32;8.07;;;6.90;;
13032;SDS011;6583;42.632;23.298;2024-02-26T02:08:59;9.23;;;7.33;;
13032;SDS011;6583;42.632;23.298;2024-02-26T02:11:31;10.63;;;8.13;;
13032;SDS011;6583;42.632;23.298;2024-02-26T02:13:58;9.90;;;6.93;;
13032;SDS011;6583;42.632;23.298;2024-02-26T02:16:25;9.73;;;7.47;;
13032;SDS011;6583;42.632;23.298;2024-02-26T02:18:53;7.27;;;6.40;;
13032;SDS011;6583;42.632;23.298;2024-02-26T02:21:21;8.07;;;6.43;;
13032;SDS011;6583;42.632;23.298;2024-02-26T02:23:48;9.37;;;7.50;;
13032;SDS011;6583;42.632;23.298;2024-02-26T02:26:15;9.50;;;7.00;;
13032;SDS011;6583;42.632;23.298;2024-02-26T02:28:42;8.90;;;7.27;;
13032;SDS011;6583;42.632;23.298;2024-02-26T02:31:10;8.73;;;7.20;;
13032;SDS011;6583;42.632;23.298;2024-02-26T02:33:36;9.43;;;7.23;;
13032;SDS011;6583;42.632;23.298;2024-02-26T02:36:04;8.33;;;6.77;;
13032;SDS011;6583;42.632;23.298;2024-02-26T02:38:36;8.87;;;6.43;;
13032;SDS011;6583;42.632;23.298;2024-02-26T02:41:03;9.77;;;6.90;;
13032;SDS011;6583;42.632;23.298;2024-02-26T02:43:30;8.57;;;6.67;;
13032;SDS011;6583;42.632;23.298;2024-02-26T02:45:56;7.53;;;6.40;;
13032;SDS011;6583;42.632;23.298;2024-02-26T02:48:23;8.87;;;6.20;;
13032;SDS011;6583;42.632;23.298;2024-02-26T02:50:50;7.10;;;6.07;;
13032;SDS011;6583;42.632;23.298;2024-02-26T02:53:17;8.43;;;6.40;;
13032;SDS011;6583;42.632;23.298;2024-02-26T02:55:45;7.30;;;6.03;;
13032;SDS011;6583;42.632;23.298;2024-02-26T02:58:11;7.50;;;6.00;;
13032;SDS011;6583;42.632;23.298;2024-02-26T03:00:38;8.53;;;5.93;;
13032;SDS011;6583;42.632;23.298;2024-02-26T03:03:04;6.30;;;5.63;;
13032;SDS011;6583;42.632;23.298;2024-02-26T03:05:31;7.50;;;5.77;;
13032;SDS011;6583;42.632;23.298;2024-02-26T03:07:58;6.77;;;5.73;;
13032;SDS011;6583;42.632;23.298;2024-02-26T03:10:24;6.47;;;5.53;;
13032;SDS011;6583;42.632;23.298;2024-02-26T03:12:53;7.87;;;5.60;;
13032;SDS011;6583;42.632;23.298;2024-02-26T03:15:20;7.60;;;5.80;;
13032;SDS011;6583;42.632;23.298;2024-02-26T03:17:46;5.87;;;5.20;;
13032;SDS011;6583;42.632;23.298;2024-02-26T03:20:13;7.70;;;5.43;;
13032;SDS011;6583;42.632;23.298;2024-02-26T03:22:40;7.27;;;5.47;;
13032;SDS011;6583;42.632;23.298;2024-02-26T03:25:07;7.60;;;5.43;;
13032;SDS011;6583;42.632;23.298;2024-02-26T03:27:34;5.70;;;5.00;;
13032;SDS011;6583;42.632;23.298;2024-02-26T03:30:02;5.97;;;4.87;;
13032;SDS011;6583;42.632;23.298;2024-02-26T03:32:29;6.20;;;5.10;;
13032;SDS011;6583;42.632;23.298;2024-02-26T03:34:56;6.17;;;4.93;;
13032;SDS011;6583;42.632;23.298;2024-02-26T03:37:23;5.70;;;5.20;;
13032;SDS011;6583;42.632;23.298;2024-02-26T03:39:49;6.67;;;5.20;;
13032;SDS011;6583;42.632;23.298;2024-02-26T03:42:16;7.37;;;5.13;;
13032;SDS011;6583;42.632;23.298;2024-02-26T03:44:43;6.00;;;5.40;;
13032;SDS011;6583;42.632;23.298;2024-02-26T03:47:11;7.03;;;5.53;;
13032;SDS011;6583;42.632;23.298;2024-02-26T03:49:37;5.73;;;5.23;;
13032;SDS011;6583;42.632;23.298;2024-02-26T03:52:04;6.90;;;5.50;;
13032;SDS011;6583;42.632;23.298;2024-02-26T03:54:31;7.47;;;5.80;;
13032;SDS011;6583;42.632;23.298;2024-02-26T03:56:58;5.93;;;5.30;;
13032;SDS011;6583;42.632;23.298;2024-02-26T03:59:25;5.20;;;4.70;;
13032;SDS011;6583;42.632;23.298;2024-02-26T04:01:51;8.80;;;5.30;;
13032;SDS011;6583;42.632;23.298;2024-02-26T04:04:19;6.07;;;5.47;;
13032;SDS011;6583;42.632;23.298;2024-02-26T04:06:46;6.80;;;5.83;;
13032;SDS011;6583;42.632;23.298;2024-02-26T04:09:15;6.27;;;5.40;;
13032;SDS011;6583;42.632;23.298;2024-02-26T04:11:42;6.23;;;5.53;;
13032;SDS011;6583;42.632;23.298;2024-02-26T04:14:09;7.63;;;4.97;;
13032;SDS011;6583;42.632;23.298;2024-02-26T04:16:37;5.87;;;5.20;;
13032;SDS011;6583;42.632;23.298;2024-02-26T04:19:04;5.90;;;5.30;;
13032;SDS011;6583;42.632;23.298;2024-02-26T04:21:33;6.57;;;5.57;;
13032;SDS011;6583;42.632;23.298;2024-02-26T04:24:00;6.60;;;5.13;;
13032;SDS011;6583;42.632;23.298;2024-02-26T04:26:27;6.13;;;5.53;;
13032;SDS011;6583;42.632;23.298;2024-02-26T04:28:53;6.37;;;5.23;;
13032;SDS011;6583;42.632;23.298;2024-02-26T04:31:20;6.03;;;4.73;;
13032;SDS011;6583;42.632;23.298;2024-02-26T04:33:47;5.87;;;4.90;;
13032;SDS011;6583;42.632;23.298;2024-02-26T04:36:14;6.40;;;5.00;;
13032;SDS011;6583;42.632;23.298;2024-02-26T04:38:42;5.77;;;5.03;;
13032;SDS011;6583;42.632;23.298;2024-02-26T04:41:09;5.97;;;5.30;;
13032;SDS011;6583;42.632;23.298;2024-02-26T04:43:36;6.77;;;4.90;;
13032;SDS011;6583;42.632;23.298;2024-02-26T04:46:06;6.23;;;5.63;;
13032;SDS011;6583;42.632;23.298;2024-02-26T04:48:33;6.67;;;5.30;;
13032;SDS011;6583;42.632;23.298;2024-02-26T04:50:59;7.03;;;4.93;;
13032;SDS011;6583;42.632;23.298;2024-02-26T04:53:26;5.27;;;4.73;;
13032;SDS011;6583;42.632;23.298;2024-02-26T04:55:55;5.63;;;5.03;;
13032;SDS011;6583;42.632;23.298;2024-02-26T04:58:21;7.50;;;6.13;;
13032;SDS011;6583;42.632;23.298;2024-02-26T05:00:48;6.67;;;5.27;;
13032;SDS011;6583;42.632;23.298;2024-02-26T05:03:14;6.87;;;5.40;;
13032;SDS011;6583;42.632;23.298;2024-02-26T05:05:42;11.13;;;8.53;;
13032;SDS011;6583;42.632;23.298;2024-02-26T05:08:09;11.90;;;8.47;;
13032;SDS011;6583;42.632;23.298;2024-02-26T05:10:36;10.60;;;7.73;;
13032;SDS011;6583;42.632;23.298;2024-02-26T05:13:07;13.20;;;7.97;;
13032;SDS011;6583;42.632;23.298;2024-02-26T05:15:34;7.83;;;6.70;;
13032;SDS011;6583;42.632;23.298;2024-02-26T05:18:01;14.20;;;10.13;;
13032;SDS011;6583;42.632;23.298;2024-02-26T05:20:27;14.17;;;9.73;;
13032;SDS011;6583;42.632;23.298;2024-02-26T05:22:54;14.70;;;9.97;;
13032;SDS011;6583;42.632;23.298;2024-02-26T05:25:21;17.43;;;11.60;;
13032;SDS011;6583;42.632;23.298;2024-02-26T05:27:47;16.97;;;11.30;;
13032;SDS011;6583;42.632;23.298;2024-02-26T05:30:16;15.77;;;12.50;;
13032;SDS011;6583;42.632;23.298;2024-02-26T05:32:42;16.73;;;12.83;;
13032;SDS011;6583;42.632;23.298;2024-02-26T05:35:09;17.93;;;13.40;;
13032;SDS011;6583;42.632;23.298;2024-02-26T05:37:36;19.63;;;15.50;;
13032;SDS011;6583;42.632;23.298;2024-02-26T05:40:03;21.03;;;15.53;;
13032;SDS011;6583;42.632;23.298;2024-02-26T05:42:30;17.80;;;14.40;;
13032;SDS011;6583;42.632;23.298;2024-02-26T05:44:58;22.53;;;17.87;;
13032;SDS011;6583;42.632;23.298;2024-02-26T05:47:31;22.70;;;16.80;;
13032;SDS011;6583;42.632;23.298;2024-02-26T05:50:00;16.43;;;12.80;;
13032;SDS011;6583;42.632;23.298;2024-02-26T05:52:29;23.17;;;18.60;;
13032;SDS011;6583;42.632;23.298;2024-02-26T05:54:56;25.13;;;18.80;;
13032;SDS011;6583;42.632;23.298;2024-02-26T05:57:23;23.97;;;18.73;;
13032;SDS011;6583;42.632;23.298;2024-02-26T05:59:50;23.53;;;18.17;;
13032;SDS011;6583;42.632;23.298;2024-02-26T06:02:16;20.23;;;15.57;;
13032;SDS011;6583;42.632;23.298;2024-02-26T06:04:44;23.97;;;17.70;;
13032;SDS011;6583;42.632;23.298;2024-02-26T06:07:12;25.70;;;19.97;;
13032;SDS011;6583;42.632;23.298;2024-02-26T06:09:38;24.70;;;19.60;;
13032;SDS011;6583;42.632;23.298;2024-02-26T06:12:06;28.00;;;20.27;;
13032;SDS011;6583;42.632;23.298;2024-02-26T06:14:33;25.03;;;18.77;;
13032;SDS011;6583;42.632;23.298;2024-02-26T06:16:59;25.13;;;19.00;;
13032;SDS011;6583;42.632;23.298;2024-02-26T06:19:26;25.07;;;18.50;;
13032;SDS011;6583;42.632;23.298;2024-02-26T06:21:54;21.37;;;17.23;;
13032;SDS011;6583;42.632;23.298;2024-02-26T06:24:21;23.10;;;17.43;;
13032;SDS011;6583;42.632;23.298;2024-02-26T06:26:47;18.30;;;14.80;;
13032;SDS011;6583;42.632;23.298;2024-02-26T06:29:14;22.23;;;16.80;;
13032;SDS011;6583;42.632;23.298;2024-02-26T06:31:41;20.40;;;15.17;;
13032;SDS011;6583;42.632;23.298;2024-02-26T06:34:08;20.07;;;15.50;;
13032;SDS011;6583;42.632;23.298;2024-02-26T06:36:34;19.83;;;15.17;;
13032;SDS011;6583;42.632;23.298;2024-02-26T06:39:02;16.47;;;13.30;;
13032;SDS011;6583;42.632;23.298;2024-02-26T06:41:30;18.83;;;14.63;;
13032;SDS011;6583;42.632;23.298;2024-02-26T06:43:57;19.03;;;14.13;;
13032;SDS011;6583;42.632;23.298;2024-02-26T06:46:23;20.47;;;14.40;;
13032;SDS011;6583;42.632;23.298;2024-02-26T06:48:51;18.13;;;14.20;;
13032;SDS011;6583;42.632;23.298;2024-02-26T06:51:18;19.30;;;14.60;;
13032;SDS011;6583;42.632;23.298;2024-02-26T06:53:45;17.27;;;13.97;;
13032;SDS011;6583;42.632;23.298;2024-02-26T06:56:13;20.87;;;14.83;;
13032;SDS011;6583;42.632;23.298;2024-02-26T06:58:39;19.93;;;14.67;;
13032;SDS011;6583;42.632;23.298;2024-02-26T07:01:06;20.57;;;15.07;;
13032;SDS011;6583;42.632;23.298;2024-02-26T07:03:33;17.93;;;15.07;;
13032;SDS011;6583;42.632;23.298;2024-02-26T07:05:59;22.57;;;18.73;;
13032;SDS011;6583;42.632;23.298;2024-02-26T07:08:26;31.40;;;22.80;;
13032;SDS011;6583;42.632;23.298;2024-02-26T07:10:52;30.70;;;23.13;;
13032;SDS011;6583;42.632;23.298;2024-02-26T07:13:20;28.93;;;22.73;;
13032;SDS011;6583;42.632;23.298;2024-02-26T07:15:47;32.20;;;24.77;;
13032;SDS011;6583;42.632;23.298;2024-02-26T07:18:14;33.63;;;26.77;;
13032;SDS011;6583;42.632;23.298;2024-02-26T07:20:40;36.03;;;27.87;;
13032;SDS011;6583;42.632;23.298;2024-02-26T07:23:07;35.83;;;26.73;;
13032;SDS011;6583;42.632;23.298;2024-02-26T07:25:34;35.53;;;28.80;;
13032;SDS011;6583;42.632;23.298;2024-02-26T07:28:01;30.50;;;23.10;;
13032;SDS011;6583;42.632;23.298;2024-02-26T07:30:29;32.20;;;24.93;;
13032;SDS011;6583;42.632;23.298;2024-02-26T07:32:55;29.43;;;23.70;;
13032;SDS011;6583;42.632;23.298;2024-02-26T07:35:23;27.40;;;21.33;;
13032;SDS011;6583;42.632;23.298;2024-02-26T07:37:50;25.07;;;20.83;;
13032;SDS011;6583;42.632;23.298;2024-02-26T07:40:16;26.70;;;20.30;;
13032;SDS011;6583;42.632;23.298;2024-02-26T07:42:43;24.07;;;19.57;;
13032;SDS011;6583;42.632;23.298;2024-02-26T07:45:10;24.97;;;18.80;;
13032;SDS011;6583;42.632;23.298;2024-02-26T07:47:38;24.73;;;18.43;;
13032;SDS011;6583;42.632;23.298;2024-02-26T07:50:07;22.30;;;17.20;;
13032;SDS011;6583;42.632;23.298;2024-02-26T07:52:34;19.20;;;14.30;;
13032;SDS011;6583;42.632;23.298;2024-02-26T07:55:00;18.83;;;14.70;;
13032;SDS011;6583;42.632;23.298;2024-02-26T07:57:30;20.80;;;15.60;;
13032;SDS011;6583;42.632;23.298;2024-02-26T07:59:57;18.03;;;14.93;;
13032;SDS011;6583;42.632;23.298;2024-02-26T08:02:24;19.17;;;14.30;;
13032;SDS011;6583;42.632;23.298;2024-02-26T08:04:52;17.03;;;13.40;;
13032;SDS011;6583;42.632;23.298;2024-02-26T08:07:19;19.13;;;13.33;;
13032;SDS011;6583;42.632;23.298;2024-02-26T08:09:46;16.40;;;12.33;;
13032;SDS011;6583;42.632;23.298;2024-02-26T08:12:13;18.63;;;13.40;;
13032;SDS011;6583;42.632;23.298;2024-02-26T08:14:39;18.20;;;13.53;;
13032;SDS011;6583;42.632;23.298;2024-02-26T08:17:07;18.07;;;12.93;;
13032;SDS011;6583;42.632;23.298;2024-02-26T08:19:34;18.17;;;13.43;;
13032;SDS011;6583;42.632;23.298;2024-02-26T08:22:02;19.00;;;14.30;;
13032;SDS011;6583;42.632;23.298;2024-02-26T08:24:29;18.57;;;14.17;;
13032;SDS011;6583;42.632;23.298;2024-02-26T08:26:56;21.47;;;14.63;;
13032;SDS011;6583;42.632;23.298;2024-02-26T08:29:23;16.97;;;12.13;;
13032;SDS011;6583;42.632;23.298;2024-02-26T08:31:49;14.97;;;11.20;;
13032;SDS011;6583;42.632;23.298;2024-02-26T08:34:16;16.30;;;12.07;;
13032;SDS011;6583;42.632;23.298;2024-02-26T08:36:42;15.50;;;11.83;;
13032;SDS011;6583;42.632;23.298;2024-02-26T08:39:11;14.80;;;10.80;;
13032;SDS011;6583;42.632;23.298;2024-02-26T08:41:38;14.50;;;11.10;;
13032;SDS011;6583;42.632;23.298;2024-02-26T08:44:05;14.47;;;10.77;;
13032;SDS011;6583;42.632;23.298;2024-02-26T08:46:32;13.97;;;10.70;;
13032;SDS011;6583;42.632;23.298;2024-02-26T08:48:58;15.40;;;10.57;;
13032;SDS011;6583;42.632;23.298;2024-02-26T08:51:25;13.17;;;9.50;;
13032;SDS011;6583;42.632;23.298;2024-02-26T08:53:52;14.70;;;10.90;;
13032;SDS011;6583;42.632;23.298;2024-02-26T08:56:20;12.53;;;9.80;;
13032;SDS011;6583;42.632;23.298;2024-02-26T08:58:47;12.40;;;9.40;;
13032;SDS011;6583;42.632;23.298;2024-02-26T09:01:16;12.00;;;9.17;;
13032;SDS011;6583;42.632;23.298;2024-02-26T09:03:43;8.90;;;7.77;;
13032;SDS011;6583;42.632;23.298;2024-02-26T09:06:10;10.07;;;8.00;;
13032;SDS011;6583;42.632;23.298;2024-02-26T09:08:37;10.03;;;7.67;;
13032;SDS011;6583;42.632;23.298;2024-02-26T09:11:04;10.03;;;8.27;;
13032;SDS011;6583;42.632;23.298;2024-02-26T09:13:32;10.33;;;8.30;;
13032;SDS011;6583;42.632;23.298;2024-02-26T09:15:58;12.70;;;8.63;;
13032;SDS011;6583;42.632;23.298;2024-02-26T09:18:25;10.87;;;8.23;;
13032;SDS011;6583;42.632;23.298;2024-02-26T09:20:53;12.13;;;8.03;;
13032;SDS011;6583;42.632;23.298;2024-02-26T09:23:20;11.80;;;7.93;;
13032;SDS011;6583;42.632;23.298;2024-02-26T09:25:47;10.77;;;8.47;;
13032;SDS011;6583;42.632;23.298;2024-02-26T09:28:13;9.37;;;7.77;;
13032;SDS011;6583;42.632;23.298;2024-02-26T09:30:43;10.27;;;7.60;;
13032;SDS011;6583;42.632;23.298;2024-02-26T09:33:10;10.80;;;8.10;;
13032;SDS011;6583;42.632;23.298;2024-02-26T09:35:36;8.33;;;7.50;;
13032;SDS011;6583;42.632;23.298;2024-02-26T09:38:03;7.53;;;6.07;;
13032;SDS011;6583;42.632;23.298;2024-02-26T09:40:30;9.23;;;7.70;;
13032;SDS011;6583;42.632;23.298;2024-02-26T09:42:59;9.80;;;6.90;;
13032;SDS011;6583;42.632;23.298;2024-02-26T09:45:26;8.43;;;7.50;;
13032;SDS011;6583;42.632;23.298;2024-02-26T09:47:56;11.33;;;8.23;;
13032;SDS011;6583;42.632;23.298;2024-02-26T09:50:23;9.07;;;7.30;;
13032;SDS011;6583;42.632;23.298;2024-02-26T09:52:51;10.43;;;8.13;;
13032;SDS011;6583;42.632;23.298;2024-02-26T09:55:18;9.40;;;7.60;;
13032;SDS011;6583;42.632;23.298;2024-02-26T09:57:45;8.93;;;7.60;;
13032;SDS011;6583;42.632;23.298;2024-02-26T10:00:14;12.00;;;8.17;;
13032;SDS011;6583;42.632;23.298;2024-02-26T10:02:44;9.40;;;7.97;;
13032;SDS011;6583;42.632;23.298;2024-02-26T10:05:13;10.53;;;8.67;;
13032;SDS011;6583;42.632;23.298;2024-02-26T10:07:42;10.00;;;9.00;;
13032;SDS011;6583;42.632;23.298;2024-02-26T10:10:10;10.50;;;8.33;;
13032;SDS011;6583;42.632;23.298;2024-02-26T10:12:37;10.07;;;8.27;;
13032;SDS011;6583;42.632;23.298;2024-02-26T10:15:04;9.47;;;8.40;;
13032;SDS011;6583;42.632;23.298;2024-02-26T10:17:31;9.70;;;7.73;;
13032;SDS011;6583;42.632;23.298;2024-02-26T10:20:10;10.10;;;8.13;;
13032;SDS011;6583;42.632;23.298;2024-02-26T10:22:41;10.10;;;8.77;;
13032;SDS011;6583;42.632;23.298;2024-02-26T10:25:08;11.20;;;8.50;;
13032;SDS011;6583;42.632;23.298;2024-02-26T10:27:35;9.07;;;7.57;;
13032;SDS011;6583;42.632;23.298;2024-02-26T10:30:02;8.77;;;7.37;;
13032;SDS011;6583;42.632;23.298;2024-02-26T10:32:29;9.37;;;7.40;;
13032;SDS011;6583;42.632;23.298;2024-02-26T10:34:56;9.03;;;8.00;;
13032;SDS011;6583;42.632;23.298;2024-02-26T10:37:24;9.00;;;7.80;;
13032;SDS011;6583;42.632;23.298;2024-02-26T10:39:51;9.43;;;7.40;;
13032;SDS011;6583;42.632;23.298;2024-02-26T10:42:18;11.70;;;8.47;;
13032;SDS011;6583;42.632;23.298;2024-02-26T10:44:44;11.13;;;9.17;;
13032;SDS011;6583;42.632;23.298;2024-02-26T10:47:13;11.37;;;7.67;;
13032;SDS011;6583;42.632;23.298;2024-02-26T10:49:44;12.07;;;7.93;;
13032;SDS011;6583;42.632;23.298;2024-02-26T10:52:13;10.10;;;8.00;;
13032;SDS011;6583;42.632;23.298;2024-02-26T10:54:42;8.30;;;7.50;;
13032;SDS011;6583;42.632;23.298;2024-02-26T10:57:14;8.00;;;7.17;;
13032;SDS011;6583;42.632;23.298;2024-02-26T10:59:42;9.27;;;8.13;;
13032;SDS011;6583;42.632;23.298;2024-02-26T11:02:10;11.50;;;8.60;;
13032;SDS011;6583;42.632;23.298;2024-02-26T11:04:39;9.80;;;8.80;;
13032;SDS011;6583;42.632;23.298;2024-02-26T11:07:06;9.23;;;8.33;;
13032;SDS011;6583;42.632;23.298;2024-02-26T11:09:35;11.10;;;8.73;;
13032;SDS011;6583;42.632;23.298;2024-02-26T11:12:08;11.60;;;8.83;;
13032;SDS011;6583;42.632;23.298;2024-02-26T11:14:38;12.77;;;8.13;;
13032;SDS011;6583;42.632;23.298;2024-02-26T11:17:07;9.13;;;7.27;;
13032;SDS011;6583;42.632;23.298;2024-02-26T11:19:35;10.93;;;8.43;;
13032;SDS011;6583;42.632;23.298;2024-02-26T11:22:04;9.87;;;8.73;;
13032;SDS011;6583;42.632;23.298;2024-02-26T11:24:31;9.67;;;8.73;;
13032;SDS011;6583;42.632;23.298;2024-02-26T11:26:59;9.90;;;8.50;;
13032;SDS011;6583;42.632;23.298;2024-02-26T11:29:32;9.77;;;8.63;;
13032;SDS011;6583;42.632;23.298;2024-02-26T11:32:03;9.10;;;8.17;;
13032;SDS011;6583;42.632;23.298;2024-02-26T11:34:31;9.93;;;7.83;;
13032;SDS011;6583;42.632;23.298;2024-02-26T11:36:58;10.70;;;7.73;;
13032;SDS011;6583;42.632;23.298;2024-02-26T11:39:35;9.73;;;7.93;;
13032;SDS011;6583;42.632;23.298;2024-02-26T11:42:04;9.27;;;7.87;;
13032;SDS011;6583;42.632;23.298;2024-02-26T11:44:34;10.07;;;8.40;;
13032;SDS011;6583;42.632;23.298;2024-02-26T11:47:09;10.43;;;8.03;;
13032;SDS011;6583;42.632;23.298;2024-02-26T11:49:36;9.50;;;8.50;;
13032;SDS011;6583;42.632;23.298;2024-02-26T11:52:04;10.23;;;7.87;;
13032;SDS011;6583;42.632;23.298;2024-02-26T11:57:28;10.77;;;8.30;;
13032;SDS011;6583;42.632;23.298;2024-02-26T11:59:57;10.63;;;8.33;;
13032;SDS011;6583;42.632;23.298;2024-02-26T12:02:38;10.73;;;8.23;;
13032;SDS011;6583;42.632;23.298;2024-02-26T12:05:06;11.20;;;8.23;;
13032;SDS011;6583;42.632;23.298;2024-02-26T12:07:37;9.80;;;8.17;;
13032;SDS011;6583;42.632;23.298;2024-02-26T12:13:02;8.80;;;6.83;;
13032;SDS011;6583;42.632;23.298;2024-02-26T12:15:35;7.97;;;6.20;;
13032;SDS011;6583;42.632;23.298;2024-02-26T12:18:04;8.40;;;7.37;;
13032;SDS011;6583;42.632;23.298;2024-02-26T12:20:32;10.30;;;7.00;;
13032;SDS011;6583;42.632;23.298;2024-02-26T12:22:58;7.43;;;6.73;;
13032;SDS011;6583;42.632;23.298;2024-02-26T12:25:26;9.37;;;6.90;;
13032;SDS011;6583;42.632;23.298;2024-02-26T12:27:54;9.13;;;6.20;;
13032;SDS011;6583;42.632;23.298;2024-02-26T12:30:21;7.27;;;6.03;;
13032;SDS011;6583;42.632;23.298;2024-02-26T12:32:50;9.17;;;6.40;;
13032;SDS011;6583;42.632;23.298;2024-02-26T12:35:22;9.57;;;6.90;;
13032;SDS011;6583;42.632;23.298;2024-02-26T12:37:50;7.97;;;6.07;;
13032;SDS011;6583;42.632;23.298;2024-02-26T12:40:17;8.10;;;6.37;;
13032;SDS011;6583;42.632;23.298;2024-02-26T12:42:45;8.10;;;5.80;;
13032;SDS011;6583;42.632;23.298;2024-02-26T12:45:12;8.80;;;5.73;;
13032;SDS011;6583;42.632;23.298;2024-02-26T12:47:41;7.57;;;5.37;;
13032;SDS011;6583;42.632;23.298;2024-02-26T12:50:10;6.63;;;5.90;;
13032;SDS011;6583;42.632;23.298;2024-02-26T12:52:38;8.37;;;6.40;;
13032;SDS011;6583;42.632;23.298;2024-02-26T12:55:06;6.63;;;5.50;;
13032;SDS011;6583;42.632;23.298;2024-02-26T12:57:34;8.67;;;5.73;;
13032;SDS011;6583;42.632;23.298;2024-02-26T13:00:02;8.17;;;5.83;;
13032;SDS011;6583;42.632;23.298;2024-02-26T13:02:31;6.90;;;5.77;;
13032;SDS011;6583;42.632;23.298;2024-02-26T13:04:58;6.23;;;5.50;;
13032;SDS011;6583;42.632;23.298;2024-02-26T13:07:27;6.93;;;5.70;;
13032;SDS011;6583;42.632;23.298;2024-02-26T13:09:54;6.83;;;5.50;;
13032;SDS011;6583;42.632;23.298;2024-02-26T13:12:21;5.37;;;4.80;;
13032;SDS011;6583;42.632;23.298;2024-02-26T13:14:57;9.70;;;5.23;;
13032;SDS011;6583;42.632;23.298;2024-02-26T13:17:25;8.67;;;5.27;;
13032;SDS011;6583;42.632;23.298;2024-02-26T13:19:53;6.13;;;5.40;;
13032;SDS011;6583;42.632;23.298;2024-02-26T13:22:20;7.07;;;5.30;;
13032;SDS011;6583;42.632;23.298;2024-02-26T13:24:54;7.50;;;5.33;;
13032;SDS011;6583;42.632;23.298;2024-02-26T13:27:22;6.07;;;5.40;;
13032;SDS011;6583;42.632;23.298;2024-02-26T13:29:50;7.30;;;5.60;;
13032;SDS011;6583;42.632;23.298;2024-02-26T13:32:31;9.67;;;5.60;;
13032;SDS011;6583;42.632;23.298;2024-02-26T13:35:04;8.97;;;5.43;;
13032;SDS011;6583;42.632;23.298;2024-02-26T13:37:31;9.60;;;5.43;;
13032;SDS011;6583;42.632;23.298;2024-02-26T13:39:59;10.03;;;5.70;;
13032;SDS011;6583;42.632;23.298;2024-02-26T13:42:29;8.77;;;5.10;;
13032;SDS011;6583;42.632;23.298;2024-02-26T13:44:56;6.57;;;5.30;;
13032;SDS011;6583;42.632;23.298;2024-02-26T13:47:22;7.67;;;5.57;;
13032;SDS011;6583;42.632;23.298;2024-02-26T13:49:49;6.13;;;5.50;;
13032;SDS011;6583;42.632;23.298;2024-02-26T13:52:16;6.93;;;5.00;;
13032;SDS011;6583;42.632;23.298;2024-02-26T13:54:42;6.73;;;5.17;;
13032;SDS011;6583;42.632;23.298;2024-02-26T13:57:10;5.20;;;4.40;;
13032;SDS011;6583;42.632;23.298;2024-02-26T13:59:37;6.20;;;4.90;;
13032;SDS011;6583;42.632;23.298;2024-02-26T14:02:07;10.90;;;5.13;;
13032;SDS011;6583;42.632;23.298;2024-02-26T14:04:34;6.40;;;5.17;;
13032;SDS011;6583;42.632;23.298;2024-02-26T14:07:00;8.77;;;5.50;;
13032;SDS011;6583;42.632;23.298;2024-02-26T14:09:28;6.27;;;5.43;;
13032;SDS011;6583;42.632;23.298;2024-02-26T14:11:55;7.97;;;5.33;;
13032;SDS011;6583;42.632;23.298;2024-02-26T14:14:23;7.27;;;5.00;;
13032;SDS011;6583;42.632;23.298;2024-02-26T14:16:50;5.27;;;4.77;;
13032;SDS011;6583;42.632;23.298;2024-02-26T14:19:17;6.10;;;5.17;;
13032;SDS011;6583;42.632;23.298;2024-02-26T14:21:44;8.07;;;5.77;;
13032;SDS011;6583;42.632;23.298;2024-02-26T14:24:10;9.83;;;5.30;;
13032;SDS011;6583;42.632;23.298;2024-02-26T14:26:37;8.33;;;5.20;;
13032;SDS011;6583;42.632;23.298;2024-02-26T14:29:04;6.53;;;5.57;;
13032;SDS011;6583;42.632;23.298;2024-02-26T14:31:32;7.63;;;5.80;;
13032;SDS011;6583;42.632;23.298;2024-02-26T14:33:58;8.13;;;5.07;;
13032;SDS011;6583;42.632;23.298;2024-02-26T14:36:25;8.63;;;6.00;;
13032;SDS011;6583;42.632;23.298;2024-02-26T14:38:52;6.97;;;5.30;;
13032;SDS011;6583;42.632;23.298;2024-02-26T14:41:19;5.80;;;4.80;;
13032;SDS011;6583;42.632;23.298;2024-02-26T14:43:45;5.47;;;4.90;;
13032;SDS011;6583;42.632;23.298;2024-02-26T14:46:12;8.87;;;4.87;;